createdAt,value
2017-04-13T00:00:15.693Z,7.96
2017-04-13T00:01:27.942Z,8.01
2017-04-13T00:02:40.459Z,7.9
2017-04-13T00:03:52.980Z,7.96
2017-04-13T00:05:05.230Z,7.99
2017-04-13T00:06:17.750Z,8.01
2017-04-13T00:07:29.974Z,8.01
2017-04-13T00:08:42.197Z,7.96
2017-04-13T00:09:54.745Z,7.96
2017-04-13T00:11:07.005Z,7.98
2017-04-13T00:12:19.525Z,7.93
2017-04-13T00:13:32.071Z,7.96
2017-04-13T00:14:44.592Z,7.98
2017-04-13T00:15:57.117Z,7.98
2017-04-13T00:17:09.043Z,7.96
2017-04-13T00:18:21.606Z,7.96
2017-04-13T00:19:34.151Z,7.96
2017-04-13T00:20:46.656Z,7.96
2017-04-13T00:21:59.201Z,7.9
2017-04-13T00:23:11.439Z,7.96
2017-04-13T00:24:24.031Z,7.96
2017-04-13T00:25:36.552Z,8.02
2017-04-13T00:26:49.086Z,7.88
2017-04-13T00:28:01.673Z,7.88
2017-04-13T00:29:13.898Z,7.9
2017-04-13T00:30:26.140Z,7.87
2017-04-13T00:31:38.370Z,7.85
2017-04-13T00:32:50.914Z,7.88
2017-04-13T00:34:02.853Z,7.78
2017-04-13T00:35:15.619Z,7.84
2017-04-13T00:36:28.151Z,7.8
2017-04-13T00:37:40.370Z,7.77
2017-04-13T00:38:52.918Z,7.77
2017-04-13T00:40:05.490Z,7.77
2017-04-13T00:41:18.052Z,7.66
2017-04-13T00:42:30.578Z,7.74
2017-04-13T00:43:43.124Z,7.66
2017-04-13T00:44:55.662Z,7.59
2017-04-13T00:46:07.572Z,7.74
2017-04-13T00:47:20.112Z,7.59
2017-04-13T00:48:32.613Z,7.69
2017-04-13T00:49:44.853Z,7.47
2017-04-13T00:50:57.377Z,7.66
2017-04-13T00:52:09.941Z,7.58
2017-04-13T00:53:22.468Z,7.51
2017-04-13T00:54:34.393Z,7.55
2017-04-13T00:55:46.932Z,7.55
2017-04-13T00:56:59.432Z,7.53
2017-04-13T00:58:11.996Z,7.53
2017-04-13T00:59:24.523Z,7.5
2017-04-13T01:00:36.798Z,7.53
2017-04-13T01:01:49.341Z,7.53
2017-04-13T01:03:01.914Z,7.47
2017-04-13T01:04:13.872Z,7.46
2017-04-13T01:05:26.400Z,7.43
2017-04-13T01:06:38.897Z,7.44
2017-04-13T01:07:51.717Z,7.37
2017-04-13T01:09:04.242Z,7.39
2017-04-13T01:10:16.775Z,7.39
2017-04-13T01:11:29.296Z,7.33
2017-04-13T01:12:41.805Z,7.31
2017-04-13T01:13:54.346Z,7.29
2017-04-13T01:15:06.866Z,7.39
2017-04-13T01:16:19.408Z,7.28
2017-04-13T01:17:31.926Z,7.25
2017-04-13T01:18:44.747Z,7.29
2017-04-13T01:19:57.276Z,7.31
2017-04-13T01:21:09.800Z,7.32
2017-04-13T01:22:22.017Z,7.26
2017-04-13T01:23:34.519Z,7.28
2017-04-13T01:24:47.388Z,7.29
2017-04-13T01:25:59.949Z,7.26
2017-04-13T01:27:12.469Z,7.28
2017-04-13T01:28:24.998Z,7.28
2017-04-13T01:29:37.513Z,7.29
2017-04-13T01:30:50.007Z,7.23
2017-04-13T01:32:02.238Z,7.26
2017-04-13T01:33:14.501Z,7.28
2017-04-13T01:34:27.047Z,7.25
2017-04-13T01:35:39.590Z,7.28
2017-04-13T01:36:52.145Z,7.28
2017-04-13T01:38:04.681Z,7.26
2017-04-13T01:39:17.237Z,7.26
2017-04-13T01:40:29.476Z,7.23
2017-04-13T01:41:41.706Z,7.23
2017-04-13T01:42:54.226Z,7.26
2017-04-13T01:44:06.765Z,7.26
2017-04-13T01:45:19.265Z,7.26
2017-04-13T01:46:31.787Z,7.22
2017-04-13T01:47:44.310Z,7.23
2017-04-13T01:48:56.830Z,7.26
2017-04-13T01:50:09.348Z,7.15
2017-04-13T01:51:22.144Z,7.15
2017-04-13T01:52:34.670Z,7.21
2017-04-13T01:53:47.254Z,7.21
2017-04-13T01:54:59.804Z,7.13
2017-04-13T01:56:12.038Z,7.1
2017-04-13T01:57:24.281Z,7.07
2017-04-13T01:58:36.795Z,7.25
2017-04-13T01:59:49.033Z,7.11
2017-04-13T02:01:01.563Z,7.14
2017-04-13T02:02:14.083Z,7.15
2017-04-13T02:03:26.622Z,7.1
2017-04-13T02:04:39.170Z,7.1
2017-04-13T02:05:51.400Z,7.11
2017-04-13T02:07:03.941Z,7.07
2017-04-13T02:08:16.440Z,7.07
2017-04-13T02:09:29.029Z,7.05
2017-04-13T02:10:41.548Z,7.08
2017-04-13T02:11:54.057Z,7.11
2017-04-13T02:13:06.824Z,7.04
2017-04-13T02:14:19.359Z,7.07
2017-04-13T02:15:31.883Z,7.01
2017-04-13T02:16:44.387Z,6.96
2017-04-13T02:17:56.951Z,6.97
2017-04-13T02:19:09.214Z,6.9
2017-04-13T02:20:21.439Z,6.97
2017-04-13T02:21:33.967Z,6.92
2017-04-13T02:22:46.180Z,7
2017-04-13T02:23:58.713Z,6.87
2017-04-13T02:25:11.233Z,6.89
2017-04-13T02:26:23.730Z,6.96
2017-04-13T02:27:36.254Z,6.93
2017-04-13T02:28:48.786Z,6.92
2017-04-13T02:30:01.348Z,6.92
2017-04-13T02:31:13.606Z,6.95
2017-04-13T02:32:26.177Z,6.96
2017-04-13T02:33:38.703Z,6.92
2017-04-13T02:34:51.503Z,6.89
2017-04-13T02:36:04.061Z,6.89
2017-04-13T02:37:16.594Z,6.95
2017-04-13T02:38:29.128Z,6.92
2017-04-13T02:39:41.659Z,6.9
2017-04-13T02:40:54.177Z,6.86
2017-04-13T02:42:06.676Z,6.89
2017-04-13T02:43:18.961Z,6.85
2017-04-13T02:44:31.491Z,6.86
2017-04-13T02:45:44.007Z,6.9
2017-04-13T02:46:56.524Z,6.86
2017-04-13T02:48:08.777Z,6.85
2017-04-13T02:49:21.320Z,6.77
2017-04-13T02:50:33.819Z,6.8
2017-04-13T02:51:46.335Z,6.78
2017-04-13T02:52:58.863Z,6.72
2017-04-13T02:54:11.082Z,6.83
2017-04-13T02:55:23.582Z,6.77
2017-04-13T02:56:36.104Z,6.65
2017-04-13T02:57:48.645Z,6.72
2017-04-13T02:59:01.218Z,6.71
2017-04-13T03:00:13.712Z,6.59
2017-04-13T03:01:26.236Z,6.59
2017-04-13T03:02:38.535Z,6.56
2017-04-13T03:03:51.075Z,6.56
2017-04-13T03:05:03.620Z,6.49
2017-04-13T03:06:16.145Z,6.53
2017-04-13T03:07:28.690Z,6.5
2017-04-13T03:08:40.912Z,6.52
2017-04-13T03:09:53.129Z,6.41
2017-04-13T03:11:05.618Z,6.47
2017-04-13T03:12:17.839Z,6.47
2017-04-13T03:13:30.045Z,6.38
2017-04-13T03:14:42.583Z,6.36
2017-04-13T03:15:55.126Z,6.35
2017-04-13T03:17:07.330Z,6.26
2017-04-13T03:18:20.151Z,6.34
2017-04-13T03:19:32.373Z,6.17
2017-04-13T03:20:44.897Z,6.29
2017-04-13T03:21:57.460Z,6.19
2017-04-13T03:23:09.977Z,6.22
2017-04-13T03:24:22.533Z,6.19
2017-04-13T03:25:35.105Z,6.15
2017-04-13T03:26:47.639Z,6.19
2017-04-13T03:28:00.185Z,6.12
2017-04-13T03:29:12.731Z,6.07
2017-04-13T03:30:24.955Z,6.01
2017-04-13T03:31:37.480Z,6.09
2017-04-13T03:32:50.004Z,6.01
2017-04-13T03:34:02.222Z,5.94
2017-04-13T03:35:14.768Z,6.06
2017-04-13T03:36:27.306Z,5.9
2017-04-13T03:37:39.839Z,5.92
2017-04-13T03:38:52.399Z,6.05
2017-04-13T03:40:04.643Z,5.91
2017-04-13T03:41:17.154Z,5.91
2017-04-13T03:42:29.389Z,5.88
2017-04-13T03:43:41.890Z,5.88
2017-04-13T03:44:54.440Z,5.88
2017-04-13T03:46:06.960Z,5.77
2017-04-13T03:47:19.461Z,5.81
2017-04-13T03:48:31.690Z,5.8
2017-04-13T03:49:44.215Z,5.88
2017-04-13T03:50:57.033Z,5.74
2017-04-13T03:52:09.564Z,5.76
2017-04-13T03:53:21.782Z,5.72
2017-04-13T03:54:34.274Z,5.76
2017-04-13T03:55:46.811Z,5.72
2017-04-13T03:56:59.345Z,5.74
2017-04-13T03:58:11.869Z,5.73
2017-04-13T03:59:24.407Z,5.65
2017-04-13T04:00:36.909Z,5.72
2017-04-13T04:01:49.737Z,5.73
2017-04-13T04:03:02.266Z,5.73
2017-04-13T04:04:14.201Z,5.76
2017-04-13T04:05:26.728Z,5.77
2017-04-13T04:06:39.258Z,5.76
2017-04-13T04:07:51.787Z,5.77
2017-04-13T04:09:04.046Z,5.74
2017-04-13T04:10:16.574Z,5.73
2017-04-13T04:11:29.091Z,5.77
2017-04-13T04:12:41.594Z,5.76
2017-04-13T04:13:54.133Z,5.7
2017-04-13T04:15:06.661Z,5.83
2017-04-13T04:16:18.896Z,5.73
2017-04-13T04:17:31.418Z,5.73
2017-04-13T04:18:43.965Z,5.77
2017-04-13T04:19:56.512Z,5.77
2017-04-13T04:21:09.029Z,5.77
2017-04-13T04:22:21.550Z,5.76
2017-04-13T04:23:34.081Z,5.76
2017-04-13T04:24:46.621Z,5.7
2017-04-13T04:25:59.150Z,5.74
2017-04-13T04:27:11.670Z,5.77
2017-04-13T04:28:24.208Z,5.72
2017-04-13T04:29:36.715Z,5.7
2017-04-13T04:30:49.215Z,5.77
2017-04-13T04:32:01.729Z,5.77
2017-04-13T04:33:14.268Z,5.74
2017-04-13T04:34:26.810Z,5.74
2017-04-13T04:35:39.314Z,5.87
2017-04-13T04:36:51.834Z,5.8
2017-04-13T04:38:04.358Z,5.91
2017-04-13T04:39:16.893Z,5.92
2017-04-13T04:40:29.422Z,5.81
2017-04-13T04:41:41.640Z,5.91
2017-04-13T04:42:54.160Z,5.95
2017-04-13T04:44:06.402Z,5.88
2017-04-13T04:45:19.169Z,5.91
2017-04-13T04:46:31.697Z,5.94
2017-04-13T04:47:43.927Z,5.94
2017-04-13T04:48:56.444Z,5.95
2017-04-13T04:50:08.960Z,6.01
2017-04-13T04:51:21.481Z,6.02
2017-04-13T04:52:33.998Z,6.12
2017-04-13T04:53:46.202Z,5.99
2017-04-13T04:54:58.707Z,6.07
2017-04-13T04:56:11.219Z,6.06
2017-04-13T04:57:23.736Z,6.07
2017-04-13T04:58:36.244Z,6.2
2017-04-13T04:59:48.752Z,6.17
2017-04-13T05:01:01.256Z,6.25
2017-04-13T05:02:13.772Z,6.19
2017-04-13T05:03:26.294Z,6.16
2017-04-13T05:04:38.536Z,6.32
2017-04-13T05:05:51.032Z,6.28
2017-04-13T05:07:03.873Z,6.2
2017-04-13T05:08:15.857Z,6.31
2017-04-13T05:09:28.394Z,6.28
2017-04-13T05:10:40.900Z,6.36
2017-04-13T05:11:53.437Z,6.38
2017-04-13T05:13:05.966Z,6.43
2017-04-13T05:14:18.482Z,6.38
2017-04-13T05:15:30.704Z,6.46
2017-04-13T05:16:43.199Z,6.44
2017-04-13T05:17:56.015Z,6.53
2017-04-13T05:19:08.216Z,6.46
2017-04-13T05:20:20.730Z,6.47
2017-04-13T05:21:33.264Z,6.54
2017-04-13T05:22:45.479Z,6.53
2017-04-13T05:23:58.020Z,6.41
2017-04-13T05:25:10.549Z,6.39
2017-04-13T05:26:23.058Z,6.36
2017-04-13T05:27:35.585Z,6.41
2017-04-13T05:28:48.317Z,6.41
2017-04-13T05:30:00.833Z,6.34
2017-04-13T05:31:13.368Z,6.26
2017-04-13T05:32:25.913Z,6.32
2017-04-13T05:33:38.135Z,6.35
2017-04-13T05:34:50.666Z,6.29
2017-04-13T05:36:02.859Z,6.28
2017-04-13T05:37:15.079Z,6.31
2017-04-13T05:38:27.578Z,6.2
2017-04-13T05:39:40.356Z,6.29
2017-04-13T05:40:52.913Z,6.31
2017-04-13T05:42:05.418Z,6.26
2017-04-13T05:43:17.938Z,6.29
2017-04-13T05:44:30.459Z,6.2
2017-04-13T05:45:43.007Z,6.2
2017-04-13T05:46:55.525Z,6.28
2017-04-13T05:48:08.092Z,6.28
2017-04-13T05:49:20.605Z,6.28
2017-04-13T05:50:33.160Z,6.17
2017-04-13T05:51:45.709Z,6.26
2017-04-13T05:52:58.229Z,6.26
2017-04-13T05:54:10.728Z,6.15
2017-04-13T05:55:23.264Z,6.2
2017-04-13T05:56:35.806Z,6.34
2017-04-13T05:57:48.327Z,6.34
2017-04-13T05:59:00.848Z,6.29
2017-04-13T06:00:13.394Z,6.29
2017-04-13T06:01:25.926Z,6.34
2017-04-13T06:02:38.471Z,6.43
2017-04-13T06:03:50.656Z,6.44
2017-04-13T06:05:03.217Z,6.5
2017-04-13T06:06:15.424Z,6.49
2017-04-13T06:07:27.978Z,6.47
2017-04-13T06:08:40.219Z,6.56
2017-04-13T06:09:52.764Z,6.6
2017-04-13T06:11:05.247Z,6.65
2017-04-13T06:12:17.781Z,6.65
2017-04-13T06:13:29.428Z,6.8
2017-04-13T06:14:41.973Z,6.75
2017-04-13T06:15:54.522Z,6.86
2017-04-13T06:17:07.044Z,6.9
2017-04-13T06:18:19.590Z,7.07
2017-04-13T06:19:32.113Z,7.13
2017-04-13T06:20:44.632Z,7.1
2017-04-13T06:21:57.170Z,7.19
2017-04-13T06:23:09.991Z,7.21
2017-04-13T06:24:22.520Z,7.25
2017-04-13T06:25:35.040Z,7.28
2017-04-13T06:26:47.553Z,7.29
2017-04-13T06:28:00.112Z,7.43
2017-04-13T06:29:12.650Z,7.5
2017-04-13T06:30:25.196Z,7.62
2017-04-13T06:31:37.719Z,7.69
2017-04-13T06:32:49.669Z,7.91
2017-04-13T06:34:02.212Z,7.95
2017-04-13T06:35:14.733Z,8.06
2017-04-13T06:36:27.279Z,8.18
2017-04-13T06:37:39.802Z,8.23
2017-04-13T06:38:51.712Z,8.24
2017-04-13T06:40:04.246Z,8.38
2017-04-13T06:41:16.492Z,8.45
2017-04-13T06:42:28.738Z,8.5
2017-04-13T06:43:41.321Z,8.44
2017-04-13T06:44:53.796Z,8.59
2017-04-13T06:46:06.338Z,8.49
2017-04-13T06:47:18.571Z,8.53
2017-04-13T06:48:31.094Z,8.61
2017-04-13T06:49:43.637Z,8.78
2017-04-13T06:50:56.159Z,8.86
2017-04-13T06:52:08.429Z,9
2017-04-13T06:53:20.970Z,9.18
2017-04-13T06:54:33.513Z,9.33
2017-04-13T06:55:46.058Z,9.52
2017-04-13T06:56:58.586Z,9.67
2017-04-13T06:58:11.109Z,9.92
2017-04-13T06:59:23.054Z,10.12
2017-04-13T07:00:35.589Z,10.3
2017-04-13T07:01:47.511Z,10.38
2017-04-13T07:03:00.068Z,10.42
2017-04-13T07:04:12.614Z,10.71
2017-04-13T07:05:25.159Z,10.8
2017-04-13T07:06:37.709Z,10.83
2017-04-13T07:07:50.276Z,10.8
2017-04-13T07:09:02.818Z,10.83
2017-04-13T07:10:15.066Z,10.8
2017-04-13T07:11:27.289Z,10.86
2017-04-13T07:12:39.826Z,10.84
2017-04-13T07:13:52.356Z,10.86
2017-04-13T07:15:04.897Z,10.9
2017-04-13T07:16:17.440Z,11.13
2017-04-13T07:17:29.920Z,11.22
2017-04-13T07:18:42.142Z,11.22
2017-04-13T07:19:54.690Z,11.23
2017-04-13T07:21:07.223Z,11.26
2017-04-13T07:22:19.776Z,11.25
2017-04-13T07:23:32.311Z,11.23
2017-04-13T07:24:44.833Z,11.3
2017-04-13T07:25:56.782Z,11.38
2017-04-13T07:27:09.333Z,11.34
2017-04-13T07:28:21.871Z,11.55
2017-04-13T07:29:34.119Z,11.76
2017-04-13T07:30:46.045Z,11.78
2017-04-13T07:31:58.289Z,11.83
2017-04-13T07:33:10.232Z,11.88
2017-04-13T07:34:22.178Z,11.99
2017-04-13T07:35:33.808Z,11.99
2017-04-13T07:36:46.053Z,12.07
2017-04-13T07:37:58.288Z,12.17
2017-04-13T07:39:10.541Z,12.29
2017-04-13T07:40:22.462Z,12.32
2017-04-13T07:41:35.007Z,12.44
2017-04-13T07:42:46.925Z,12.45
2017-04-13T07:43:59.448Z,12.66
2017-04-13T07:45:12.020Z,12.73
2017-04-13T07:46:24.217Z,12.87
2017-04-13T07:47:36.766Z,12.9
2017-04-13T07:48:49.308Z,12.86
2017-04-13T07:50:01.275Z,12.94
2017-04-13T07:51:13.824Z,13.01
2017-04-13T07:52:26.062Z,13.19
2017-04-13T07:53:37.696Z,13.03
2017-04-13T07:54:49.338Z,12.93
2017-04-13T07:56:01.556Z,12.81
2017-04-13T07:57:13.180Z,12.86
2017-04-13T07:58:25.401Z,12.8
2017-04-13T07:59:37.046Z,12.78
2017-04-13T08:00:49.596Z,12.68
2017-04-13T08:02:01.215Z,12.72
2017-04-13T08:03:13.456Z,12.68
2017-04-13T08:04:25.998Z,12.45
2017-04-13T08:05:38.252Z,12.45
2017-04-13T08:06:50.790Z,12.25
2017-04-13T08:08:03.021Z,12.18
2017-04-13T08:09:15.234Z,12.02
2017-04-13T08:10:27.188Z,11.91
2017-04-13T08:11:39.410Z,11.78
2017-04-13T08:12:51.380Z,11.73
2017-04-13T08:14:03.316Z,11.65
2017-04-13T08:15:15.543Z,11.6
2017-04-13T08:16:28.082Z,11.51
2017-04-13T08:17:39.714Z,11.43
2017-04-13T08:18:51.659Z,11.37
2017-04-13T08:20:03.877Z,11.22
2017-04-13T08:21:15.794Z,11.19
2017-04-13T08:22:28.019Z,11.15
2017-04-13T08:23:39.935Z,11
2017-04-13T08:24:52.215Z,10.9
2017-04-13T08:26:04.124Z,10.94
2017-04-13T08:27:16.674Z,10.79
2017-04-13T08:28:28.603Z,10.8
2017-04-13T08:29:40.520Z,10.8
2017-04-13T08:30:52.759Z,10.79
2017-04-13T08:32:05.293Z,10.82
2017-04-13T08:33:17.828Z,10.79
2017-04-13T08:34:30.071Z,10.8
2017-04-13T08:35:41.729Z,10.79
2017-04-13T08:36:53.970Z,10.67
2017-04-13T08:38:05.909Z,10.68
2017-04-13T08:39:18.157Z,10.69
2017-04-13T08:40:30.358Z,10.68
2017-04-13T08:41:42.271Z,10.69
2017-04-13T08:42:54.521Z,10.75
2017-04-13T08:44:07.071Z,10.8
2017-04-13T08:45:18.989Z,10.83
2017-04-13T08:46:31.216Z,10.95
2017-04-13T08:47:42.854Z,10.87
2017-04-13T08:48:55.384Z,10.83
2017-04-13T08:50:07.630Z,10.89
2017-04-13T08:51:20.174Z,10.94
2017-04-13T08:52:32.735Z,10.94
2017-04-13T08:53:45.312Z,10.92
2017-04-13T08:54:57.262Z,10.83
2017-04-13T08:56:09.524Z,10.79
2017-04-13T08:57:22.047Z,10.72
2017-04-13T08:58:34.546Z,10.82
2017-04-13T08:59:46.149Z,10.59
2017-04-13T09:00:58.165Z,10.55
2017-04-13T09:02:09.487Z,10.42
2017-04-13T09:03:21.124Z,10.45
2017-04-13T09:04:33.080Z,10.31
2017-04-13T09:05:45.024Z,10.42
2017-04-13T09:06:56.639Z,10.31
2017-04-13T09:08:08.539Z,10.36
2017-04-13T09:09:20.460Z,10.38
2017-04-13T09:10:32.683Z,10.34
2017-04-13T09:11:44.922Z,10.31
2017-04-13T09:12:56.869Z,10.34
2017-04-13T09:14:09.415Z,10.36
2017-04-13T09:15:21.661Z,10.31
2017-04-13T09:16:33.886Z,10.34
2017-04-13T09:17:46.085Z,10.41
2017-04-13T09:18:58.623Z,10.46
2017-04-13T09:20:10.554Z,10.59
2017-04-13T09:21:22.773Z,10.62
2017-04-13T09:22:34.719Z,10.72
2017-04-13T09:23:46.962Z,10.76
2017-04-13T09:24:58.604Z,10.83
2017-04-13T09:26:11.121Z,10.94
2017-04-13T09:27:23.679Z,11.05
2017-04-13T09:28:36.231Z,11.08
2017-04-13T09:29:48.462Z,11.1
2017-04-13T09:31:00.709Z,11.15
2017-04-13T09:32:13.258Z,11.22
2017-04-13T09:33:25.479Z,11.23
2017-04-13T09:34:38.018Z,11.33
2017-04-13T09:35:50.524Z,11.35
2017-04-13T09:37:02.788Z,11.43
2017-04-13T09:38:15.569Z,11.43
2017-04-13T09:39:28.129Z,11.53
2017-04-13T09:40:40.066Z,11.4
2017-04-13T09:41:52.043Z,11.49
2017-04-13T09:43:04.589Z,11.43
2017-04-13T09:44:16.821Z,11.33
2017-04-13T09:45:29.395Z,11.38
2017-04-13T09:46:41.953Z,11.3
2017-04-13T09:47:54.166Z,11.23
2017-04-13T09:49:06.406Z,11.25
2017-04-13T09:50:18.647Z,11.2
2017-04-13T09:51:30.569Z,11.25
2017-04-13T09:52:41.910Z,11.33
2017-04-13T09:53:53.555Z,11.35
2017-04-13T09:55:05.802Z,11.37
2017-04-13T09:56:17.733Z,11.45
2017-04-13T09:57:30.275Z,11.6
2017-04-13T09:58:42.811Z,11.71
2017-04-13T09:59:55.357Z,11.81
2017-04-13T10:01:07.606Z,11.89
2017-04-13T10:02:19.856Z,11.89
2017-04-13T10:03:32.395Z,11.96
2017-04-13T10:04:44.948Z,12
2017-04-13T10:05:56.870Z,12.02
2017-04-13T10:07:09.171Z,12.08
2017-04-13T10:08:20.802Z,12.2
2017-04-13T10:09:32.725Z,12.17
2017-04-13T10:10:44.654Z,12.14
2017-04-13T10:11:56.277Z,12.23
2017-04-13T10:13:08.212Z,12.2
2017-04-13T10:14:20.116Z,12.11
2017-04-13T10:15:32.658Z,12.02
2017-04-13T10:16:44.905Z,11.93
2017-04-13T10:17:56.547Z,11.91
2017-04-13T10:19:08.797Z,11.89
2017-04-13T10:20:20.750Z,11.88
2017-04-13T10:21:33.284Z,11.91
2017-04-13T10:22:45.815Z,11.86
2017-04-13T10:23:57.456Z,11.81
2017-04-13T10:25:09.697Z,11.78
2017-04-13T10:26:21.950Z,11.78
2017-04-13T10:27:34.171Z,11.7
2017-04-13T10:28:46.092Z,11.74
2017-04-13T10:29:58.634Z,11.85
2017-04-13T10:31:10.888Z,11.99
2017-04-13T10:32:22.824Z,11.99
2017-04-13T10:33:35.380Z,12.18
2017-04-13T10:34:47.614Z,12.15
2017-04-13T10:36:00.162Z,12.2
2017-04-13T10:37:12.689Z,12.29
2017-04-13T10:38:25.230Z,12.35
2017-04-13T10:39:37.781Z,12.5
2017-04-13T10:40:50.023Z,12.54
2017-04-13T10:42:02.276Z,12.66
2017-04-13T10:43:14.839Z,12.55
2017-04-13T10:44:27.089Z,12.43
2017-04-13T10:45:39.642Z,12.43
2017-04-13T10:46:52.182Z,12.39
2017-04-13T10:48:04.387Z,12.28
2017-04-13T10:49:16.968Z,12.12
2017-04-13T10:50:29.171Z,12.11
2017-04-13T10:51:41.135Z,11.97
2017-04-13T10:52:52.781Z,12
2017-04-13T10:54:04.999Z,11.97
2017-04-13T10:55:16.924Z,11.97
2017-04-13T10:56:29.170Z,12.02
2017-04-13T10:57:41.397Z,12.21
2017-04-13T10:58:53.640Z,12.37
2017-04-13T11:00:04.665Z,12.57
2017-04-13T11:01:16.285Z,12.76
2017-04-13T11:02:28.873Z,12.94
2017-04-13T11:03:40.492Z,13.17
2017-04-13T11:04:53.041Z,13.17
2017-04-13T11:06:05.583Z,13.28
2017-04-13T11:07:18.107Z,13.28
2017-04-13T11:08:30.034Z,13.36
2017-04-13T11:09:42.532Z,13.37
2017-04-13T11:10:54.527Z,13.45
2017-04-13T11:12:06.495Z,13.49
2017-04-13T11:13:18.762Z,13.58
2017-04-13T11:14:30.991Z,13.61
2017-04-13T11:15:42.929Z,13.64
2017-04-13T11:16:55.155Z,13.62
2017-04-13T11:18:07.371Z,13.65
2017-04-13T11:19:19.039Z,13.73
2017-04-13T11:20:31.259Z,13.67
2017-04-13T11:21:43.766Z,13.83
2017-04-13T11:22:55.401Z,13.8
2017-04-13T11:24:07.933Z,13.79
2017-04-13T11:25:19.835Z,13.79
2017-04-13T11:26:32.389Z,13.79
2017-04-13T11:27:44.345Z,13.86
2017-04-13T11:28:56.289Z,13.89
2017-04-13T11:30:08.189Z,13.76
2017-04-13T11:31:20.152Z,13.79
2017-04-13T11:32:32.699Z,13.87
2017-04-13T11:33:45.247Z,13.93
2017-04-13T11:34:57.818Z,13.87
2017-04-13T11:36:10.040Z,13.98
2017-04-13T11:37:22.814Z,13.95
2017-04-13T11:38:34.736Z,14.11
2017-04-13T11:39:46.681Z,14.25
2017-04-13T11:40:58.951Z,14.23
2017-04-13T11:42:11.193Z,14.48
2017-04-13T11:43:23.421Z,14.49
2017-04-13T11:44:35.991Z,14.68
2017-04-13T11:45:48.231Z,14.92
2017-04-13T11:47:00.471Z,14.96
2017-04-13T11:48:13.019Z,15.02
2017-04-13T11:49:25.596Z,15.1
2017-04-13T11:50:37.543Z,15.07
2017-04-13T11:51:49.479Z,15.07
2017-04-13T11:53:01.427Z,15
2017-04-13T11:54:13.045Z,14.97
2017-04-13T11:55:25.276Z,14.89
2017-04-13T11:56:37.515Z,14.79
2017-04-13T11:57:50.047Z,14.61
2017-04-13T11:59:02.287Z,14.53
2017-04-13T12:00:14.833Z,14.45
2017-04-13T12:01:26.782Z,14.26
2017-04-13T12:02:38.744Z,14.22
2017-04-13T12:03:50.117Z,14.19
2017-04-13T12:05:02.643Z,14.04
2017-04-13T12:06:14.854Z,14.11
2017-04-13T12:07:27.079Z,13.98
2017-04-13T12:08:39.622Z,13.91
2017-04-13T12:09:51.579Z,13.94
2017-04-13T12:11:04.114Z,13.71
2017-04-13T12:12:16.113Z,13.65
2017-04-13T12:13:28.337Z,13.6
2017-04-13T12:14:40.583Z,13.47
2017-04-13T12:15:53.104Z,13.3
2017-04-13T12:17:05.350Z,13.23
2017-04-13T12:18:17.589Z,13.17
2017-04-13T12:19:29.813Z,13.19
2017-04-13T12:20:42.338Z,13.13
2017-04-13T12:21:54.852Z,13.02
2017-04-13T12:23:07.382Z,12.93
2017-04-13T12:24:19.332Z,12.87
2017-04-13T12:25:31.594Z,12.87
2017-04-13T12:26:43.560Z,12.7
2017-04-13T12:27:56.106Z,12.68
2017-04-13T12:29:08.627Z,12.53
2017-04-13T12:30:20.573Z,12.5
2017-04-13T12:31:32.486Z,12.3
2017-04-13T12:32:44.448Z,12.26
2017-04-13T12:33:56.997Z,12.23
2017-04-13T12:35:09.545Z,12.23
2017-04-13T12:36:21.482Z,12.2
2017-04-13T12:37:33.727Z,12.14
2017-04-13T12:38:46.254Z,12.12
2017-04-13T12:39:58.176Z,12.15
2017-04-13T12:41:10.421Z,12.2
2017-04-13T12:42:22.640Z,12.21
2017-04-13T12:43:35.157Z,12.17
2017-04-13T12:44:47.386Z,12.11
2017-04-13T12:45:59.931Z,11.99
2017-04-13T12:47:11.891Z,11.99
2017-04-13T12:48:23.823Z,11.95
2017-04-13T12:49:36.072Z,11.95
2017-04-13T12:50:48.290Z,11.86
2017-04-13T12:52:00.828Z,11.96
2017-04-13T12:53:13.053Z,11.99
2017-04-13T12:54:24.994Z,11.95
2017-04-13T12:55:37.203Z,11.91
2017-04-13T12:56:49.759Z,11.83
2017-04-13T12:58:01.990Z,11.91
2017-04-13T12:59:14.525Z,11.85
2017-04-13T13:00:27.079Z,11.86
2017-04-13T13:01:39.595Z,11.91
2017-04-13T13:02:51.537Z,11.89
2017-04-13T13:04:03.763Z,11.88
2017-04-13T13:05:16.308Z,11.89
2017-04-13T13:06:28.211Z,11.99
2017-04-13T13:07:40.750Z,11.95
2017-04-13T13:08:52.970Z,11.99
2017-04-13T13:10:04.942Z,12
2017-04-13T13:11:17.460Z,11.89
2017-04-13T13:12:29.706Z,11.91
2017-04-13T13:13:41.630Z,11.89
2017-04-13T13:14:53.553Z,11.85
2017-04-13T13:16:05.769Z,11.99
2017-04-13T13:17:17.716Z,11.99
2017-04-13T13:18:29.318Z,11.95
2017-04-13T13:19:40.645Z,11.93
2017-04-13T13:20:52.880Z,11.97
2017-04-13T13:22:04.823Z,12.08
2017-04-13T13:23:17.382Z,12.05
2017-04-13T13:24:29.914Z,12
2017-04-13T13:25:42.118Z,12.02
2017-04-13T13:26:54.667Z,11.99
2017-04-13T13:28:06.262Z,11.89
2017-04-13T13:29:18.782Z,12.07
2017-04-13T13:30:31.022Z,12.02
2017-04-13T13:31:43.271Z,12.1
2017-04-13T13:32:55.510Z,12.1
2017-04-13T13:34:07.764Z,12.15
2017-04-13T13:35:20.032Z,12.2
2017-04-13T13:36:31.966Z,12.21
2017-04-13T13:37:43.606Z,12.29
2017-04-13T13:38:55.894Z,12.39
2017-04-13T13:40:08.436Z,12.44
2017-04-13T13:41:20.681Z,12.39
2017-04-13T13:42:32.307Z,12.43
2017-04-13T13:43:44.229Z,12.45
2017-04-13T13:44:56.753Z,12.47
2017-04-13T13:46:08.391Z,12.37
2017-04-13T13:47:20.637Z,12.43
2017-04-13T13:48:32.868Z,12.39
2017-04-13T13:49:45.130Z,12.37
2017-04-13T13:50:57.358Z,12.35
2017-04-13T13:52:09.582Z,12.44
2017-04-13T13:53:21.571Z,12.57
2017-04-13T13:54:33.798Z,12.55
2017-04-13T13:55:46.044Z,12.69
2017-04-13T13:56:58.263Z,12.68
2017-04-13T13:58:10.502Z,12.68
2017-04-13T13:59:22.732Z,12.76
2017-04-13T14:00:34.978Z,12.76
2017-04-13T14:01:47.220Z,12.83
2017-04-13T14:02:59.141Z,12.8
2017-04-13T14:04:10.768Z,12.78
2017-04-13T14:05:23.008Z,12.83
2017-04-13T14:06:35.551Z,12.83
2017-04-13T14:07:48.075Z,12.91
2017-04-13T14:09:00.888Z,12.94
2017-04-13T14:10:13.435Z,12.99
2017-04-13T14:11:25.957Z,13.02
2017-04-13T14:12:38.184Z,13.12
2017-04-13T14:13:50.405Z,13.12
2017-04-13T14:15:02.945Z,13.13
2017-04-13T14:16:14.868Z,13.11
2017-04-13T14:17:25.913Z,13.16
2017-04-13T14:18:38.465Z,13.09
2017-04-13T14:19:50.377Z,12.99
2017-04-13T14:21:02.927Z,12.99
2017-04-13T14:22:15.435Z,12.95
2017-04-13T14:23:27.663Z,12.94
2017-04-13T14:24:39.615Z,12.91
2017-04-13T14:25:51.542Z,12.91
2017-04-13T14:27:04.106Z,12.9
2017-04-13T14:28:16.656Z,12.91
2017-04-13T14:29:29.202Z,12.9
2017-04-13T14:30:41.719Z,12.99
2017-04-13T14:31:54.271Z,12.99
2017-04-13T14:33:06.786Z,13.03
2017-04-13T14:34:19.331Z,12.99
2017-04-13T14:35:31.852Z,13.03
2017-04-13T14:36:43.480Z,13.06
2017-04-13T14:37:55.708Z,13.02
2017-04-13T14:39:07.963Z,13.06
2017-04-13T14:40:19.912Z,13.08
2017-04-13T14:41:31.839Z,13.12
2017-04-13T14:42:43.514Z,13.12
2017-04-13T14:43:56.057Z,13.27
2017-04-13T14:45:08.301Z,13.27
2017-04-13T14:46:20.565Z,13.36
2017-04-13T14:47:32.790Z,13.46
2017-04-13T14:48:44.715Z,13.52
2017-04-13T14:49:57.232Z,13.55
2017-04-13T14:51:09.479Z,13.61
2017-04-13T14:52:22.024Z,13.71
2017-04-13T14:53:34.269Z,13.64
2017-04-13T14:54:45.876Z,13.67
2017-04-13T14:55:57.507Z,13.71
2017-04-13T14:57:09.751Z,13.61
2017-04-13T14:58:22.329Z,13.55
2017-04-13T14:59:34.880Z,13.57
2017-04-13T15:00:47.416Z,13.49
2017-04-13T15:01:59.964Z,13.36
2017-04-13T15:03:12.493Z,13.37
2017-04-13T15:04:25.029Z,13.28
2017-04-13T15:05:37.576Z,13.26
2017-04-13T15:06:50.153Z,13.17
2017-04-13T15:08:02.675Z,13.17
2017-04-13T15:09:14.917Z,13.11
2017-04-13T15:10:27.455Z,13.05
2017-04-13T15:11:39.359Z,13.03
2017-04-13T15:12:51.885Z,13.06
2017-04-13T15:14:04.105Z,13.01
2017-04-13T15:15:16.352Z,12.98
2017-04-13T15:16:28.871Z,12.93
2017-04-13T15:17:41.141Z,12.86
2017-04-13T15:18:53.386Z,12.86
2017-04-13T15:20:05.921Z,12.8
2017-04-13T15:21:18.169Z,12.8
2017-04-13T15:22:30.700Z,12.86
2017-04-13T15:23:43.222Z,12.75
2017-04-13T15:24:55.464Z,12.75
2017-04-13T15:26:07.960Z,12.83
2017-04-13T15:27:20.510Z,12.73
2017-04-13T15:28:33.052Z,12.75
2017-04-13T15:29:45.548Z,12.69
2017-04-13T15:30:57.797Z,12.72
2017-04-13T15:32:10.325Z,12.69
2017-04-13T15:33:22.888Z,12.72
2017-04-13T15:34:35.424Z,12.68
2017-04-13T15:35:47.657Z,12.65
2017-04-13T15:36:59.891Z,12.7
2017-04-13T15:38:12.139Z,12.68
2017-04-13T15:39:24.367Z,12.69
2017-04-13T15:40:36.611Z,12.68
2017-04-13T15:41:49.160Z,12.72
2017-04-13T15:43:01.702Z,12.69
2017-04-13T15:44:14.251Z,12.69
2017-04-13T15:45:26.473Z,12.58
2017-04-13T15:46:38.700Z,12.54
2017-04-13T15:47:51.232Z,12.53
2017-04-13T15:49:03.732Z,12.48